Portada
METAR-TAF:

METAR-TAF

Aeropuertos :

Aeropuerto de Uagadugú

Uagadugú, Burkina Faso

latitud: 12-21N, longitud: 001-31W, altitud: 316 m

Observación

El informe se hizo hace 37 minutos, a las 16:00 UTC
Viento 8 kt del este, variando entre noreste y este-sureste
Temperatura 34°C
Humedad 10%
Presión 1010 hPa
Visibilidad 10 km o más
sin nubes por debajo de 1500 m y sin presencia de cumulonimbus.

METAR: DFFD 111600Z 08008KT 050V120 CAVOK 34/M02 Q1010 NOSIG

Hora: 16:37 (16:37 UTC)

Pronóstico

El informe se hizo hace 5 horas y 37 minutos, a las 11:00 UTC
Pronóstico válido del 11 a las 12 UTC al 12 a las 18 UTC
Viento 10 kt del este
Visibilidad: 8000 m
Temporalmente
del 11 a las 17 UTC al 11 a las 21 UTC
Visibilidad: 4000 m
calima
Temporalmente
del 12 a las 06 UTC al 12 a las 10 UTC
Visibilidad: 3500 m
calima

TAF: DFFD 111100Z 1112/1218 08010KT 8000 NSC TEMPO 1117/1121 4000 HZ TEMPO 1206/1210 3500 HZ

Observaciones y pronósticos meteorológicos de más de 4000 aeropuertos (mensajes METAR y TAF).

Los puntos amarillos y rojos representan las estaciones disponibles.

Ponga el ratón en el punto deseado para ver el nombre de la estación.

Haga clic para ver las observaciones y los pronósticos meteorológicos.

Para cambiar el mapa : haga clic en los botones verdes con una cruz de color negro para hacer un zoom, en el botón verde con un guión para alejar o en las flechas verdes para mapas adyacentes.


METAR-TAF: